createdAt,value
2023-08-02T00:15:59.468Z,425
2023-08-02T00:35:59.462Z,423
2023-08-02T00:55:59.486Z,421
2023-08-02T01:15:59.334Z,418
2023-08-02T01:35:59.513Z,415
2023-08-02T01:55:59.536Z,418
2023-08-02T02:15:59.629Z,413
2023-08-02T02:35:59.613Z,405
2023-08-02T02:55:59.599Z,396
2023-08-02T03:15:59.638Z,390
2023-08-02T03:35:59.651Z,387
2023-08-02T03:55:59.672Z,383
2023-08-02T04:15:59.735Z,382
2023-08-02T04:35:59.723Z,376
2023-08-02T04:55:59.760Z,371
2023-08-02T05:15:59.791Z,365
2023-08-02T05:35:59.777Z,363
2023-08-02T05:55:59.810Z,359
2023-08-02T06:15:59.869Z,356
2023-08-02T06:55:59.676Z,358
2023-08-02T07:15:59.917Z,362
2023-08-02T07:35:59.934Z,368
2023-08-02T07:55:59.938Z,372
2023-08-02T08:35:59.806Z,370
2023-08-02T08:55:59.895Z,370
2023-08-02T09:16:00.122Z,370
2023-08-02T09:35:59.932Z,369
2023-08-02T09:55:59.984Z,362
2023-08-02T10:16:00.122Z,355
2023-08-02T10:56:00.042Z,364
2023-08-02T11:16:00.078Z,369
2023-08-02T11:35:59.943Z,376
2023-08-02T11:56:00.072Z,387
2023-08-02T12:16:00.083Z,394
2023-08-02T12:36:00.102Z,395
2023-08-02T12:56:00.152Z,392
2023-08-02T13:16:00.192Z,399
2023-08-02T13:36:00.061Z,398
2023-08-02T13:56:00.099Z,399
2023-08-02T14:16:00.221Z,400
2023-08-02T14:36:00.229Z,399
2023-08-02T14:56:00.243Z,411
2023-08-02T15:16:00.245Z,413
2023-08-02T15:56:00.368Z,418
2023-08-02T16:16:00.385Z,431
2023-08-02T16:36:00.334Z,440
2023-08-02T16:56:00.328Z,448
2023-08-02T17:16:00.519Z,466
2023-08-02T17:36:00.406Z,469
2023-08-02T17:56:00.405Z,469
2023-08-02T18:16:00.557Z,463
2023-08-02T18:36:00.411Z,455
2023-08-02T18:56:00.439Z,445
2023-08-02T19:16:00.581Z,434
2023-08-02T19:36:00.575Z,429
2023-08-02T20:36:00.428Z,414
2023-08-02T20:56:00.663Z,411
2023-08-02T21:16:00.699Z,413
2023-08-02T21:36:00.702Z,412
2023-08-02T21:56:00.646Z,409
2023-08-02T22:16:00.662Z,412
2023-08-02T22:56:00.816Z,421
2023-08-02T23:16:00.895Z,418
2023-08-02T23:36:00.825Z,417
2023-08-02T23:56:00.874Z,416
